Time;durP1;ratioP1;P1;durP2;ratioP2;P2;SDS_P1;SDS_P2;PMS_P1;PMS_P2;Temp;Humidity;BMP_temperature;BMP_pressure;BME280_temperature;BME280_humidity;BME280_pressure;Samples;Min_cycle;Max_cycle;Signal;HPM_P1;HPM_P2
2023/07/15 00:00:26;;;;;;;;;;;;;;;;;;5014569;28;19929;-64
2023/07/15 00:02:52;;;;;;;;;;;;;;;;;;5014706;28;20016;-64
2023/07/15 00:05:20;;;;;;;;;;;;;;;;;;5014552;28;19921;-64
2023/07/15 00:07:46;;;;;;;;;;;;;;;;;;5014550;28;20390;-64
2023/07/15 00:10:12;;;;;;;;;;;;;;;;;;5012719;28;19921;-64
2023/07/15 00:12:38;;;;;;;;;;;;;;;;;;5013708;28;19933;-64
2023/07/15 00:15:05;;;;;;;;;;;;;;;;;;5013613;28;20438;-64
2023/07/15 00:17:31;;;;;;;;;;;;;;;;;;5013738;28;19921;-64
2023/07/15 00:19:57;;;;;;;;;;;;;;;;;;5013490;28;20437;-64
2023/07/15 00:22:24;;;;;;;;;;;;;;;;;;5002524;28;19921;-64
2023/07/15 00:24:49;;;;;;;;;;;;;;;;;;4999539;28;19925;-64
2023/07/15 00:27:15;;;;;;;;;;;;;;;;;;5014341;28;19933;-64
2023/07/15 00:29:41;;;;;;;;;;;;;;;;;;5014183;28;20291;-64
2023/07/15 00:32:07;;;;;;;;;;;;;;;;;;5014191;28;19921;-64
2023/07/15 00:34:33;;;;;;;;;;;;;;;;;;5013810;28;19934;-64
2023/07/15 00:36:59;;;;;;;;;;;;;;;;;;5013951;28;19925;-64
2023/07/15 00:39:25;;;;;;;;;;;;;;;;;;5012754;28;19928;-65
2023/07/15 00:41:51;;;;;;;;;;;;;;;;;;5014092;28;20249;-64
2023/07/15 00:44:17;;;;;;;;;;;;;;;;;;5013955;28;19976;-64
2023/07/15 00:46:43;;;;;;;;;;;;;;;;;;5013786;28;20050;-64
2023/07/15 00:49:09;;;;;;;;;;;;;;;;;;5013763;28;19926;-64
2023/07/15 00:51:35;;;;;;;;;;;;;;;;;;5013385;28;19932;-64
2023/07/15 00:54:01;;;;;;;;;;;;;;;;;;5013901;28;19925;-64
2023/07/15 00:56:27;;;;;;;;;;;;;;;;;;5013366;28;19983;-64
2023/07/15 00:58:53;;;;;;;;;;;;;;;;;;5012190;28;19957;-64
2023/07/15 01:01:19;;;;;;;;;;;;;;;;;;5013102;28;20397;-64
2023/07/15 01:03:45;;;;;;;;;;;;;;;;;;5012110;28;19930;-64
2023/07/15 01:06:11;;;;;;;;;;;;;;;;;;5013619;28;19927;-64
2023/07/15 01:08:37;;;;;;;;;;;;;;;;;;5013753;28;20318;-64
2023/07/15 01:11:03;;;;;;;;;;;;;;;;;;5013380;28;19925;-64
2023/07/15 01:13:29;;;;;;;;;;;;;;;;;;5013388;28;19983;-64
2023/07/15 01:15:55;;;;;;;;;;;;;;;;;;5013155;28;19926;-64
2023/07/15 01:18:20;;;;;;;;;;;;;;;;;;5013168;28;20406;-64
2023/07/15 01:20:47;;;;;;;;;;;;;;;;;;5013397;28;19925;-64
2023/07/15 01:23:13;;;;;;;;;;;;;;;;;;5011818;28;19947;-64
2023/07/15 01:25:39;;;;;;;;;;;;;;;;;;5013075;28;19922;-64
2023/07/15 01:28:05;;;;;;;;;;;;;;;;;;5013160;28;19932;-64
2023/07/15 01:30:31;;;;;;;;;;;;;;;;;;5012909;28;19925;-64
2023/07/15 01:32:57;;;;;;;;;;;;;;;;;;5011778;28;20017;-64
2023/07/15 01:35:23;;;;;;;;;;;;;;;;;;5013020;28;19925;-64
2023/07/15 01:37:48;;;;;;;;;;;;;;;;;;5013042;28;20489;-64
2023/07/15 01:40:14;;;;;;;;;;;;;;;;;;5012812;28;19997;-64
2023/07/15 01:42:40;;;;;;;;;;;;;;;;;;5012882;28;19921;-64
2023/07/15 01:45:09;;;;;;;;;;;;;;;;;;5012906;28;20295;-64
2023/07/15 01:47:35;;;;;;;;;;;;;;;;;;5012660;28;19925;-64
2023/07/15 01:50:01;;;;;;;;;;;;;;;;;;5012850;28;20024;-64
2023/07/15 01:52:27;;;;;;;;;;;;;;;;;;5012449;28;19937;-64
2023/07/15 01:54:53;;;;;;;;;;;;;;;;;;5012717;28;19925;-64
2023/07/15 01:57:19;;;;;;;;;;;;;;;;;;5012654;28;20020;-64
2023/07/15 01:59:45;;;;;;;;;;;;;;;;;;5012728;28;20291;-64
2023/07/15 02:02:10;;;;;;;;;;;;;;;;;;5012376;28;19930;-64
2023/07/15 02:04:36;;;;;;;;;;;;;;;;;;5012381;28;19921;-64
2023/07/15 02:07:02;;;;;;;;;;;;;;;;;;5011035;28;19932;-64
2023/07/15 02:09:28;;;;;;;;;;;;;;;;;;5012449;28;20021;-64
2023/07/15 02:11:54;;;;;;;;;;;;;;;;;;5010850;28;20397;-64
2023/07/15 02:14:21;;;;;;;;;;;;;;;;;;5011508;28;19922;-65
2023/07/15 02:16:47;;;;;;;;;;;;;;;;;;5011483;28;19929;-64
2023/07/15 02:19:13;;;;;;;;;;;;;;;;;;5010512;28;19928;-64
2023/07/15 02:21:39;;;;;;;;;;;;;;;;;;5011813;28;20391;-64
2023/07/15 02:24:06;;;;;;;;;;;;;;;;;;5012502;28;20000;-64
2023/07/15 02:26:32;;;;;;;;;;;;;;;;;;5012170;28;19922;-64
2023/07/15 02:28:58;;;;;;;;;;;;;;;;;;5012213;28;19931;-64
2023/07/15 02:31:24;;;;;;;;;;;;;;;;;;5012003;28;20004;-64
2023/07/15 02:33:50;;;;;;;;;;;;;;;;;;5012372;28;19941;-64
2023/07/15 02:36:16;;;;;;;;;;;;;;;;;;5012166;28;19973;-64
2023/07/15 02:38:41;;;;;;;;;;;;;;;;;;5012162;28;20024;-64
2023/07/15 02:41:07;;;;;;;;;;;;;;;;;;5012076;28;19921;-64
2023/07/15 02:43:33;;;;;;;;;;;;;;;;;;5012024;28;19932;-64
2023/07/15 02:45:59;;;;;;;;;;;;;;;;;;5012048;28;19925;-64
2023/07/15 02:48:25;;;;;;;;;;;;;;;;;;5012245;28;19926;-64
2023/07/15 02:50:51;;;;;;;;;;;;;;;;;;5012125;28;20258;-64
2023/07/15 02:53:17;;;;;;;;;;;;;;;;;;5011719;28;19932;-64
2023/07/15 02:55:43;;;;;;;;;;;;;;;;;;5011898;28;19926;-64
2023/07/15 02:58:09;;;;;;;;;;;;;;;;;;5011930;28;19926;-64
2023/07/15 03:00:36;;;;;;;;;;;;;;;;;;5011988;28;19928;-64
2023/07/15 03:03:02;;;;;;;;;;;;;;;;;;5011780;28;20379;-64
2023/07/15 03:05:28;;;;;;;;;;;;;;;;;;5011917;28;19925;-64
2023/07/15 03:07:54;;;;;;;;;;;;;;;;;;5011862;28;19921;-64
2023/07/15 03:10:20;;;;;;;;;;;;;;;;;;4994218;28;20527;-64
2023/07/15 03:12:48;;;;;;;;;;;;;;;;;;5011854;28;19983;-64
2023/07/15 03:15:14;;;;;;;;;;;;;;;;;;5011785;28;20080;-64
2023/07/15 03:17:40;;;;;;;;;;;;;;;;;;5011799;28;19974;-64
2023/07/15 03:20:19;;;;;;;;;;;;;;;;;;5011669;28;20004;-64
2023/07/15 03:22:45;;;;;;;;;;;;;;;;;;5012478;28;19988;-64
2023/07/15 03:25:11;;;;;;;;;;;;;;;;;;5015432;28;20413;-64
2023/07/15 03:27:37;;;;;;;;;;;;;;;;;;5015165;28;19951;-64
2023/07/15 03:30:02;;;;;;;;;;;;;;;;;;5015375;28;19997;-64
2023/07/15 03:32:28;;;;;;;;;;;;;;;;;;5015013;28;20421;-64
2023/07/15 03:34:54;;;;;;;;;;;;;;;;;;5015021;28;20453;-64
2023/07/15 03:37:20;;;;;;;;;;;;;;;;;;5014838;28;20064;-64
2023/07/15 03:39:46;;;;;;;;;;;;;;;;;;5014556;28;20103;-64
2023/07/15 03:42:12;;;;;;;;;;;;;;;;;;5013904;28;20612;-64
2023/07/15 03:44:38;;;;;;;;;;;;;;;;;;5014347;28;19929;-64
2023/07/15 03:47:04;;;;;;;;;;;;;;;;;;5014890;28;19921;-64
2023/07/15 03:49:30;;;;;;;;;;;;;;;;;;5014887;28;20013;-63
2023/07/15 03:51:58;;;;;;;;;;;;;;;;;;5014707;28;19929;-63
2023/07/15 03:54:23;;;;;;;;;;;;;;;;;;5014545;28;19925;-64
2023/07/15 03:56:49;;;;;;;;;;;;;;;;;;5013346;28;19921;-64
2023/07/15 03:59:15;;;;;;;;;;;;;;;;;;5013264;28;20367;-64
2023/07/15 04:01:41;;;;;;;;;;;;;;;;;;5014821;28;19921;-64
2023/07/15 04:04:09;;;;;;;;;;;;;;;;;;5014612;28;20306;-64
2023/07/15 04:06:35;;;;;;;;;;;;;;;;;;5014496;28;19983;-64
2023/07/15 04:09:01;;;;;;;;;;;;;;;;;;5014075;28;19926;-64
2023/07/15 04:11:26;;;;;;;;;;;;;;;;;;5013307;28;19969;-64
2023/07/15 04:13:52;;;;;;;;;;;;;;;;;;5013568;28;19975;-64
2023/07/15 04:16:18;;;;;;;;;;;;;;;;;;5013622;28;19979;-65
2023/07/15 04:18:44;;;;;;;;;;;;;;;;;;5013449;28;20257;-64
2023/07/15 04:21:10;;;;;;;;;;;;;;;;;;5012323;28;19929;-64
2023/07/15 04:23:36;;;;;;;;;;;;;;;;;;5012663;28;19922;-64
2023/07/15 04:26:02;;;;;;;;;;;;;;;;;;5013978;28;19930;-64
2023/07/15 04:28:28;;;;;;;;;;;;;;;;;;5014016;28;20012;-64
2023/07/15 04:30:54;;;;;;;;;;;;;;;;;;5014015;28;20419;-64
2023/07/15 04:33:20;;;;;;;;;;;;;;;;;;5013772;28;19925;-64
2023/07/15 04:35:46;;;;;;;;;;;;;;;;;;5012991;28;19933;-65
2023/07/15 04:38:12;;;;;;;;;;;;;;;;;;5013652;28;20390;-64
2023/07/15 04:40:38;;;;;;;;;;;;;;;;;;4996028;28;19933;-64
2023/07/15 04:43:04;;;;;;;;;;;;;;;;;;5013680;28;19921;-64
2023/07/15 04:45:31;;;;;;;;;;;;;;;;;;5013598;28;19972;-64
2023/07/15 04:47:57;;;;;;;;;;;;;;;;;;5013126;28;20008;-64
2023/07/15 04:50:23;;;;;;;;;;;;;;;;;;5012913;28;19925;-64
2023/07/15 04:52:50;;;;;;;;;;;;;;;;;;5012913;28;19926;-64
2023/07/15 04:55:15;;;;;;;;;;;;;;;;;;5012747;28;20028;-64
2023/07/15 04:57:41;;;;;;;;;;;;;;;;;;5012559;28;19969;-64
2023/07/15 05:00:16;;;;;;;;;;;;;;;;;;5012507;28;19951;-64
2023/07/15 05:02:42;;;;;;;;;;;;;;;;;;5012480;28;19921;-64
2023/07/15 05:05:08;;;;;;;;;;;;;;;;;;5010986;28;20290;-64
2023/07/15 05:07:34;;;;;;;;;;;;;;;;;;5012331;28;20573;-64
2023/07/15 05:10:00;;;;;;;;;;;;;;;;;;5012573;28;19926;-64
2023/07/15 05:12:26;;;;;;;;;;;;;;;;;;5012634;28;19922;-64
2023/07/15 05:14:52;;;;;;;;;;;;;;;;;;5012382;28;19926;-64
2023/07/15 05:17:18;;;;;;;;;;;;;;;;;;5013074;28;19930;-64
2023/07/15 05:19:43;;;;;;;;;;;;;;;;;;5011867;28;19929;-64
2023/07/15 05:22:09;;;;;;;;;;;;;;;;;;5012930;28;19991;-64
2023/07/15 05:24:35;;;;;;;;;;;;;;;;;;5013081;28;19922;-64
2023/07/15 05:27:01;;;;;;;;;;;;;;;;;;5013098;28;20024;-64
2023/07/15 05:29:27;;;;;;;;;;;;;;;;;;5012913;28;19932;-64
2023/07/15 05:31:53;;;;;;;;;;;;;;;;;;5012964;28;19921;-64
2023/07/15 05:34:19;;;;;;;;;;;;;;;;;;5012824;28;19948;-64
2023/07/15 05:36:45;;;;;;;;;;;;;;;;;;5012746;28;19921;-64
2023/07/15 05:39:11;;;;;;;;;;;;;;;;;;5012806;28;19926;-64
2023/07/15 05:41:37;;;;;;;;;;;;;;;;;;5012736;28;19955;-64
2023/07/15 05:44:03;;;;;;;;;;;;;;;;;;5012539;28;19925;-64
2023/07/15 05:46:29;;;;;;;;;;;;;;;;;;5012474;28;19925;-64
2023/07/15 05:48:55;;;;;;;;;;;;;;;;;;5011420;28;19969;-64
2023/07/15 05:51:21;;;;;;;;;;;;;;;;;;5012215;28;20008;-64
2023/07/15 05:53:47;;;;;;;;;;;;;;;;;;5012706;28;20012;-64
2023/07/15 05:56:13;;;;;;;;;;;;;;;;;;5012329;28;19936;-64
2023/07/15 05:58:39;;;;;;;;;;;;;;;;;;5012632;28;19922;-64
2023/07/15 06:01:05;;;;;;;;;;;;;;;;;;5012432;28;20386;-64
2023/07/15 06:03:31;;;;;;;;;;;;;;;;;;5012352;28;19933;-64
2023/07/15 06:05:57;;;;;;;;;;;;;;;;;;5012155;28;19929;-64
2023/07/15 06:08:23;;;;;;;;;;;;;;;;;;5012360;28;19921;-64
2023/07/15 06:10:48;;;;;;;;;;;;;;;;;;5009945;28;20387;-65
2023/07/15 06:13:14;;;;;;;;;;;;;;;;;;5011330;28;20319;-65
2023/07/15 06:15:42;;;;;;;;;;;;;;;;;;5011224;28;19936;-65
2023/07/15 06:18:08;;;;;;;;;;;;;;;;;;5011426;28;19925;-65
2023/07/15 06:20:34;;;;;;;;;;;;;;;;;;5011230;28;19922;-65
2023/07/15 06:23:00;;;;;;;;;;;;;;;;;;5011702;28;19921;-65
2023/07/15 06:25:29;;;;;;;;;;;;;;;;;;5011761;28;19984;-65
2023/07/15 06:27:55;;;;;;;;;;;;;;;;;;5010862;28;19965;-65
2023/07/15 06:30:21;;;;;;;;;;;;;;;;;;5012010;28;20011;-65
2023/07/15 06:32:47;;;;;;;;;;;;;;;;;;5011940;28;20372;-65
2023/07/15 06:35:13;;;;;;;;;;;;;;;;;;5011756;28;20257;-65
2023/07/15 06:37:38;;;;;;;;;;;;;;;;;;4998536;28;20328;-65
2023/07/15 06:40:04;;;;;;;;;;;;;;;;;;4991004;28;19921;-65
2023/07/15 06:42:30;;;;;;;;;;;;;;;;;;4992302;28;19980;-65
2023/07/15 06:44:56;;;;;;;;;;;;;;;;;;4992410;28;20427;-65
2023/07/15 06:47:22;;;;;;;;;;;;;;;;;;4990949;28;20016;-65
2023/07/15 06:49:48;;;;;;;;;;;;;;;;;;4992268;28;19926;-65
2023/07/15 06:52:14;;;;;;;;;;;;;;;;;;4992325;28;19973;-65
2023/07/15 06:54:40;;;;;;;;;;;;;;;;;;4992405;28;19922;-65
2023/07/15 06:57:06;;;;;;;;;;;;;;;;;;4992239;28;19925;-64
2023/07/15 06:59:32;;;;;;;;;;;;;;;;;;4996019;28;20360;-65
2023/07/15 07:01:57;;;;;;;;;;;;;;;;;;4995959;28;20314;-65
2023/07/15 07:04:23;;;;;;;;;;;;;;;;;;4995992;28;19922;-65
2023/07/15 07:06:49;;;;;;;;;;;;;;;;;;4995785;28;19926;-65
2023/07/15 07:09:15;;;;;;;;;;;;;;;;;;4996104;28;19922;-65
2023/07/15 07:11:41;;;;;;;;;;;;;;;;;;4995887;28;19922;-65
2023/07/15 07:14:08;;;;;;;;;;;;;;;;;;4995998;28;19932;-65
2023/07/15 07:16:33;;;;;;;;;;;;;;;;;;4995705;28;20060;-65
2023/07/15 07:18:59;;;;;;;;;;;;;;;;;;4995794;28;20020;-65
2023/07/15 07:21:25;;;;;;;;;;;;;;;;;;4995896;28;20422;-65
2023/07/15 07:23:55;;;;;;;;;;;;;;;;;;4995793;28;19951;-65
2023/07/15 07:26:20;;;;;;;;;;;;;;;;;;4995611;28;20315;-65
2023/07/15 07:28:46;;;;;;;;;;;;;;;;;;4995501;28;19926;-65
2023/07/15 07:31:12;;;;;;;;;;;;;;;;;;4995278;28;20012;-65
2023/07/15 07:33:38;;;;;;;;;;;;;;;;;;4994142;28;19926;-65
2023/07/15 07:36:04;;;;;;;;;;;;;;;;;;4995542;28;19930;-65
2023/07/15 07:38:30;;;;;;;;;;;;;;;;;;4995457;28;20283;-65
2023/07/15 07:40:56;;;;;;;;;;;;;;;;;;4995440;28;19928;-65
2023/07/15 07:43:22;;;;;;;;;;;;;;;;;;4995340;28;20382;-65
2023/07/15 07:45:48;;;;;;;;;;;;;;;;;;4995315;28;19922;-65
2023/07/15 07:48:14;;;;;;;;;;;;;;;;;;4995144;28;19961;-65
2023/07/15 07:50:40;;;;;;;;;;;;;;;;;;4995253;28;20712;-65
2023/07/15 07:53:06;;;;;;;;;;;;;;;;;;4993986;28;20462;-65
2023/07/15 07:55:32;;;;;;;;;;;;;;;;;;4993874;28;20021;-65
2023/07/15 07:57:58;;;;;;;;;;;;;;;;;;4993788;28;19922;-65
2023/07/15 08:00:24;;;;;;;;;;;;;;;;;;4993755;28;19932;-65
2023/07/15 08:02:50;;;;;;;;;;;;;;;;;;4993720;28;19921;-65
2023/07/15 08:05:16;;;;;;;;;;;;;;;;;;4992382;28;20013;-65
2023/07/15 08:07:42;;;;;;;;;;;;;;;;;;4950522;23;1810823;-62
2023/07/15 08:10:07;;;;;;;;;;;;;;;;;;5011818;28;19975;-62
2023/07/15 08:12:33;;;;;;;;;;;;;;;;;;5014069;28;19921;-63
2023/07/15 08:14:59;;;;;;;;;;;;;;;;;;5014132;28;19926;-62
2023/07/15 08:17:25;;;;;;;;;;;;;;;;;;5014091;28;19945;-62
2023/07/15 08:19:51;;;;;;;;;;;;;;;;;;5013037;28;19925;-62
2023/07/15 08:22:17;;;;;;;;;;;;;;;;;;5014336;28;20004;-62
2023/07/15 08:24:43;;;;;;;;;;;;;;;;;;5014234;28;19921;-62
2023/07/15 08:27:09;;;;;;;;;;;;;;;;;;4996419;28;19921;-62
2023/07/15 08:29:35;;;;;;;;;;;;;;;;;;5014035;28;20286;-62
2023/07/15 08:32:01;;;;;;;;;;;;;;;;;;5012699;28;19922;-62
2023/07/15 08:34:27;;;;;;;;;;;;;;;;;;5012629;28;19928;-63
2023/07/15 08:36:53;;;;;;;;;;;;;;;;;;5014031;28;20302;-62
2023/07/15 08:39:19;;;;;;;;;;;;;;;;;;5012529;28;20022;-63
2023/07/15 08:41:45;;;;;;;;;;;;;;;;;;4996086;28;19921;-62
2023/07/15 08:44:12;;;;;;;;;;;;;;;;;;5013793;28;19921;-64
2023/07/15 08:46:38;;;;;;;;;;;;;;;;;;5014088;28;20000;-62
2023/07/15 08:49:04;;;;;;;;;;;;;;;;;;5013753;28;20011;-62
2023/07/15 08:51:30;;;;;;;;;;;;;;;;;;5013702;28;19925;-62
2023/07/15 08:53:56;;;;;;;;;;;;;;;;;;5013601;28;19921;-62
2023/07/15 08:56:23;;;;;;;;;;;;;;;;;;5013538;28;19926;-62
2023/07/15 08:58:49;;;;;;;;;;;;;;;;;;5013474;28;19925;-62
2023/07/15 09:01:15;;;;;;;;;;;;;;;;;;5013749;28;19921;-62
2023/07/15 09:03:41;;;;;;;;;;;;;;;;;;5013636;28;20260;-62
2023/07/15 09:06:07;;;;;;;;;;;;;;;;;;5013554;28;19926;-62
2023/07/15 09:08:33;;;;;;;;;;;;;;;;;;5013228;28;19988;-62
2023/07/15 09:10:59;;;;;;;;;;;;;;;;;;5013365;28;19921;-62
2023/07/15 09:13:25;;;;;;;;;;;;;;;;;;5013232;28;20645;-62
2023/07/15 09:15:51;;;;;;;;;;;;;;;;;;5013313;28;20252;-62
2023/07/15 09:18:17;;;;;;;;;;;;;;;;;;5013146;28;19948;-62
2023/07/15 09:20:43;;;;;;;;;;;;;;;;;;5012929;28;20342;-62
2023/07/15 09:23:09;;;;;;;;;;;;;;;;;;5012980;28;20040;-62
2023/07/15 09:25:36;;;;;;;;;;;;;;;;;;5012937;28;19967;-62
2023/07/15 09:28:02;;;;;;;;;;;;;;;;;;5012830;28;19929;-62
2023/07/15 09:30:28;;;;;;;;;;;;;;;;;;5012973;28;19925;-62
2023/07/15 09:32:54;;;;;;;;;;;;;;;;;;5012934;28;20398;-62
2023/07/15 09:35:22;;;;;;;;;;;;;;;;;;5012733;28;19987;-62
2023/07/15 09:37:48;;;;;;;;;;;;;;;;;;5012763;28;19925;-62
2023/07/15 09:40:14;;;;;;;;;;;;;;;;;;5012660;28;19948;-62
2023/07/15 09:42:40;;;;;;;;;;;;;;;;;;5012679;28;19932;-62
2023/07/15 09:45:06;;;;;;;;;;;;;;;;;;5012681;28;19921;-62
2023/07/15 09:47:32;;;;;;;;;;;;;;;;;;5012234;28;20287;-62
2023/07/15 09:49:58;;;;;;;;;;;;;;;;;;5011734;28;19930;-62
2023/07/15 09:52:24;;;;;;;;;;;;;;;;;;5012057;28;20008;-62
2023/07/15 09:54:50;;;;;;;;;;;;;;;;;;5011803;28;19929;-62
2023/07/15 09:57:16;;;;;;;;;;;;;;;;;;5011693;28;20008;-62
2023/07/15 09:59:42;;;;;;;;;;;;;;;;;;5012142;28;19925;-62
2023/07/15 10:02:07;;;;;;;;;;;;;;;;;;5012417;28;19925;-62
2023/07/15 10:04:33;;;;;;;;;;;;;;;;;;5012363;28;20000;-62
2023/07/15 10:06:59;;;;;;;;;;;;;;;;;;5012116;28;19926;-62
2023/07/15 10:09:25;;;;;;;;;;;;;;;;;;5012284;28;20025;-62
2023/07/15 10:11:54;;;;;;;;;;;;;;;;;;5012160;28;20279;-62
2023/07/15 10:14:20;;;;;;;;;;;;;;;;;;5012446;28;19927;-62
2023/07/15 10:16:46;;;;;;;;;;;;;;;;;;5010909;28;20365;-62
2023/07/15 10:19:12;;;;;;;;;;;;;;;;;;5012326;28;19931;-62
2023/07/15 10:21:38;;;;;;;;;;;;;;;;;;5012114;28;19929;-62
2023/07/15 10:24:03;;;;;;;;;;;;;;;;;;5011909;28;19929;-62
2023/07/15 10:26:29;;;;;;;;;;;;;;;;;;5011929;28;19921;-62
2023/07/15 10:28:55;;;;;;;;;;;;;;;;;;5012171;28;20019;-62
2023/07/15 10:31:21;;;;;;;;;;;;;;;;;;5010653;28;19952;-62
2023/07/15 10:33:47;;;;;;;;;;;;;;;;;;5011414;28;20379;-62
2023/07/15 10:36:13;;;;;;;;;;;;;;;;;;5011936;28;19933;-62
2023/07/15 10:38:39;;;;;;;;;;;;;;;;;;5011990;28;20593;-62
2023/07/15 10:41:05;;;;;;;;;;;;;;;;;;5011919;28;20020;-62
2023/07/15 10:43:31;;;;;;;;;;;;;;;;;;5012047;28;19921;-62
2023/07/15 10:45:57;;;;;;;;;;;;;;;;;;5010443;28;19928;-62
2023/07/15 10:48:23;;;;;;;;;;;;;;;;;;5011972;28;19968;-62
2023/07/15 10:50:48;;;;;;;;;;;;;;;;;;5010429;28;20015;-62
2023/07/15 10:53:14;;;;;;;;;;;;;;;;;;5011769;28;20019;-62
2023/07/15 10:55:40;;;;;;;;;;;;;;;;;;5011486;28;19953;-62
2023/07/15 10:58:07;;;;;;;;;;;;;;;;;;5012018;28;19936;-62
2023/07/15 11:00:33;;;;;;;;;;;;;;;;;;5011790;28;20016;-62
2023/07/15 11:02:58;;;;;;;;;;;;;;;;;;5011773;28;20052;-62
2023/07/15 11:05:24;;;;;;;;;;;;;;;;;;5010380;28;19928;-62
2023/07/15 11:07:50;;;;;;;;;;;;;;;;;;5011556;28;19981;-62
2023/07/15 11:10:16;;;;;;;;;;;;;;;;;;5011660;28;19927;-62
2023/07/15 11:12:42;;;;;;;;;;;;;;;;;;5011853;28;20367;-62
2023/07/15 11:15:08;;;;;;;;;;;;;;;;;;5011554;28;19929;-62
2023/07/15 11:17:34;;;;;;;;;;;;;;;;;;5011442;28;20506;-62
2023/07/15 11:20:00;;;;;;;;;;;;;;;;;;5010827;28;19929;-62
2023/07/15 11:22:26;;;;;;;;;;;;;;;;;;5010824;28;19975;-62
2023/07/15 11:24:51;;;;;;;;;;;;;;;;;;5009741;28;19928;-62
2023/07/15 11:27:17;;;;;;;;;;;;;;;;;;5011112;28;19979;-62
2023/07/15 11:29:43;;;;;;;;;;;;;;;;;;5010878;28;20444;-62
2023/07/15 11:32:09;;;;;;;;;;;;;;;;;;5010553;28;19921;-62
2023/07/15 11:34:35;;;;;;;;;;;;;;;;;;5009137;28;19921;-62
2023/07/15 11:37:07;;;;;;;;;;;;;;;;;;5010564;28;19925;-62
2023/07/15 11:39:33;;;;;;;;;;;;;;;;;;5010945;28;19925;-62
2023/07/15 11:41:59;;;;;;;;;;;;;;;;;;5010684;28;19928;-62
2023/07/15 11:44:25;;;;;;;;;;;;;;;;;;5012380;28;20635;-62
2023/07/15 11:46:51;;;;;;;;;;;;;;;;;;5013963;28;19932;-62
2023/07/15 11:49:17;;;;;;;;;;;;;;;;;;5012844;28;19921;-62
2023/07/15 11:51:43;;;;;;;;;;;;;;;;;;5013591;28;19977;-63
2023/07/15 11:54:09;;;;;;;;;;;;;;;;;;5013971;28;20292;-62
2023/07/15 11:56:35;;;;;;;;;;;;;;;;;;5013758;28;19969;-62
2023/07/15 11:59:01;;;;;;;;;;;;;;;;;;5014280;28;19953;-62
2023/07/15 12:01:27;;;;;;;;;;;;;;;;;;5013217;28;19921;-62
2023/07/15 12:03:53;;;;;;;;;;;;;;;;;;5014689;28;19925;-62
2023/07/15 12:06:19;;;;;;;;;;;;;;;;;;5014356;28;20390;-63
2023/07/15 12:08:45;;;;;;;;;;;;;;;;;;5014658;28;20397;-62
2023/07/15 12:11:11;;;;;;;;;;;;;;;;;;5014433;28;19921;-62
2023/07/15 12:13:37;;;;;;;;;;;;;;;;;;5013161;28;20452;-62
2023/07/15 12:16:02;;;;;;;;;;;;;;;;;;5014227;28;19972;-62
2023/07/15 12:18:28;;;;;;;;;;;;;;;;;;5014205;28;20376;-63
2023/07/15 12:20:54;;;;;;;;;;;;;;;;;;5014163;28;19922;-62
2023/07/15 12:23:20;;;;;;;;;;;;;;;;;;5014328;28;19925;-62
2023/07/15 12:25:46;;;;;;;;;;;;;;;;;;5014398;28;19968;-62
2023/07/15 12:28:12;;;;;;;;;;;;;;;;;;5012761;28;19921;-62
2023/07/15 12:30:38;;;;;;;;;;;;;;;;;;5014180;28;20314;-62
2023/07/15 12:33:04;;;;;;;;;;;;;;;;;;5013901;28;19976;-62
2023/07/15 12:35:30;;;;;;;;;;;;;;;;;;5013753;28;19972;-62
2023/07/15 12:37:56;;;;;;;;;;;;;;;;;;5013803;28;19921;-62
2023/07/15 12:40:22;;;;;;;;;;;;;;;;;;5013829;28;19922;-62
2023/07/15 12:42:48;;;;;;;;;;;;;;;;;;5013857;28;19980;-62
2023/07/15 12:45:15;;;;;;;;;;;;;;;;;;5013714;28;19984;-62
2023/07/15 12:47:40;;;;;;;;;;;;;;;;;;5013650;28;19925;-62
2023/07/15 12:50:06;;;;;;;;;;;;;;;;;;5013637;28;19971;-62
2023/07/15 12:52:32;;;;;;;;;;;;;;;;;;4999917;28;19922;-62
2023/07/15 12:55:02;;;;;;;;;;;;;;;;;;4993732;28;19936;-62
2023/07/15 12:57:28;;;;;;;;;;;;;;;;;;4993746;28;19969;-62
2023/07/15 12:59:54;;;;;;;;;;;;;;;;;;4993999;28;20015;-62
2023/07/15 13:02:20;;;;;;;;;;;;;;;;;;4993888;28;20012;-62
2023/07/15 13:04:45;;;;;;;;;;;;;;;;;;4993795;28;20478;-62
2023/07/15 13:07:11;;;;;;;;;;;;;;;;;;4993657;28;19936;-62
2023/07/15 13:09:37;;;;;;;;;;;;;;;;;;4993805;28;19934;-62
2023/07/15 13:12:03;;;;;;;;;;;;;;;;;;4993740;28;19968;-62
2023/07/15 13:14:29;;;;;;;;;;;;;;;;;;4992262;28;19929;-62
2023/07/15 13:16:55;;;;;;;;;;;;;;;;;;4993246;28;20412;-62
2023/07/15 13:19:21;;;;;;;;;;;;;;;;;;4993311;28;19921;-62
2023/07/15 13:21:47;;;;;;;;;;;;;;;;;;4993472;28;19929;-62
2023/07/15 13:24:13;;;;;;;;;;;;;;;;;;4993503;28;19922;-62
2023/07/15 13:26:38;;;;;;;;;;;;;;;;;;4993406;28;19957;-62
2023/07/15 13:29:05;;;;;;;;;;;;;;;;;;4993281;28;20360;-62
2023/07/15 13:31:31;;;;;;;;;;;;;;;;;;4993343;28;20336;-62
2023/07/15 13:33:56;;;;;;;;;;;;;;;;;;5008221;28;19933;-62
2023/07/15 13:36:22;;;;;;;;;;;;;;;;;;4991884;28;19930;-62
2023/07/15 13:38:49;;;;;;;;;;;;;;;;;;4993199;28;19981;-62
2023/07/15 13:41:14;;;;;;;;;;;;;;;;;;4993251;28;19928;-62
2023/07/15 13:43:44;;;;;;;;;;;;;;;;;;4993052;28;20391;-62
2023/07/15 13:46:10;;;;;;;;;;;;;;;;;;4992861;28;19921;-62
2023/07/15 13:48:36;;;;;;;;;;;;;;;;;;4990722;28;20375;-62
2023/07/15 13:51:02;;;;;;;;;;;;;;;;;;4992500;28;19933;-63
2023/07/15 13:53:28;;;;;;;;;;;;;;;;;;4992349;28;20020;-62
2023/07/15 13:55:54;;;;;;;;;;;;;;;;;;5007084;28;19976;-62
2023/07/15 13:58:20;;;;;;;;;;;;;;;;;;4992314;28;19922;-62
2023/07/15 14:00:46;;;;;;;;;;;;;;;;;;4992892;28;20368;-62
2023/07/15 14:03:12;;;;;;;;;;;;;;;;;;4992415;28;19977;-62
2023/07/15 14:05:38;;;;;;;;;;;;;;;;;;4992829;28;19991;-62
2023/07/15 14:08:04;;;;;;;;;;;;;;;;;;4991539;28;19984;-62
2023/07/15 14:10:30;;;;;;;;;;;;;;;;;;4992606;28;19922;-62
2023/07/15 14:12:56;;;;;;;;;;;;;;;;;;4992728;28;19929;-62
2023/07/15 14:15:22;;;;;;;;;;;;;;;;;;5007571;28;19926;-62
2023/07/15 14:17:48;;;;;;;;;;;;;;;;;;4990954;28;19925;-62
2023/07/15 14:20:15;;;;;;;;;;;;;;;;;;4990488;28;19950;-62
2023/07/15 14:22:41;;;;;;;;;;;;;;;;;;4992210;28;19932;-62
2023/07/15 14:25:07;;;;;;;;;;;;;;;;;;4992541;28;19926;-62
2023/07/15 14:27:33;;;;;;;;;;;;;;;;;;4992565;28;19932;-62
2023/07/15 14:29:59;;;;;;;;;;;;;;;;;;4992341;28;19922;-62
2023/07/15 14:32:24;;;;;;;;;;;;;;;;;;4992347;28;19988;-62
2023/07/15 14:34:50;;;;;;;;;;;;;;;;;;4992500;28;19986;-62
2023/07/15 14:37:16;;;;;;;;;;;;;;;;;;4991068;28;19928;-62
2023/07/15 14:39:42;;;;;;;;;;;;;;;;;;4992466;28;19921;-62
2023/07/15 14:42:08;;;;;;;;;;;;;;;;;;4992456;28;19930;-62
2023/07/15 14:44:34;;;;;;;;;;;;;;;;;;4992124;28;20367;-62
2023/07/15 14:47:00;;;;;;;;;;;;;;;;;;4991024;28;19922;-62
2023/07/15 14:49:26;;;;;;;;;;;;;;;;;;4992316;28;19976;-62
2023/07/15 14:51:52;;;;;;;;;;;;;;;;;;4992417;28;19926;-62
2023/07/15 14:54:18;;;;;;;;;;;;;;;;;;4992020;28;19976;-62
2023/07/15 14:56:44;;;;;;;;;;;;;;;;;;4991972;28;19925;-62
2023/07/15 14:59:10;;;;;;;;;;;;;;;;;;4992049;28;19964;-62
2023/07/15 15:01:35;;;;;;;;;;;;;;;;;;4992364;28;19932;-62
2023/07/15 15:04:01;;;;;;;;;;;;;;;;;;4992240;28;19967;-62
2023/07/15 15:06:27;;;;;;;;;;;;;;;;;;4992004;28;19929;-63
2023/07/15 15:08:53;;;;;;;;;;;;;;;;;;4992044;28;19922;-62
2023/07/15 15:11:22;;;;;;;;;;;;;;;;;;4992024;28;20307;-62
2023/07/15 15:13:49;;;;;;;;;;;;;;;;;;4992065;28;19926;-63
2023/07/15 15:16:15;;;;;;;;;;;;;;;;;;4992140;28;19964;-62
2023/07/15 15:18:43;;;;;;;;;;;;;;;;;;4992812;28;20338;-63
2023/07/15 15:21:09;;;;;;;;;;;;;;;;;;4995724;28;19925;-62
2023/07/15 15:23:35;;;;;;;;;;;;;;;;;;4995768;28;19922;-62
2023/07/15 15:26:01;;;;;;;;;;;;;;;;;;4995642;28;19945;-63
2023/07/15 15:28:27;;;;;;;;;;;;;;;;;;4995681;28;19922;-62
2023/07/15 15:30:55;;;;;;;;;;;;;;;;;;4995606;28;19932;-62
2023/07/15 15:33:20;;;;;;;;;;;;;;;;;;5010618;28;19964;-62
2023/07/15 15:35:46;;;;;;;;;;;;;;;;;;4995480;28;19929;-62
2023/07/15 15:38:12;;;;;;;;;;;;;;;;;;4994468;28;19922;-62
2023/07/15 15:40:38;;;;;;;;;;;;;;;;;;4995446;28;19965;-62
2023/07/15 15:43:04;;;;;;;;;;;;;;;;;;4994792;28;20036;-62
2023/07/15 15:45:30;;;;;;;;;;;;;;;;;;4994482;28;19926;-62
2023/07/15 15:47:56;;;;;;;;;;;;;;;;;;4994911;28;19957;-62
2023/07/15 15:50:22;;;;;;;;;;;;;;;;;;4994441;28;20005;-62
2023/07/15 15:52:49;;;;;;;;;;;;;;;;;;4994499;28;19927;-62
2023/07/15 15:55:15;;;;;;;;;;;;;;;;;;4994862;28;19926;-62
2023/07/15 15:57:41;;;;;;;;;;;;;;;;;;4995062;28;19976;-62
2023/07/15 16:00:07;;;;;;;;;;;;;;;;;;4994931;28;20495;-62
2023/07/15 16:02:33;;;;;;;;;;;;;;;;;;4995220;28;19926;-62
2023/07/15 16:04:58;;;;;;;;;;;;;;;;;;4994901;28;20446;-62
2023/07/15 16:07:24;;;;;;;;;;;;;;;;;;4994777;28;19926;-62
2023/07/15 16:09:50;;;;;;;;;;;;;;;;;;4994858;28;19980;-62
2023/07/15 16:12:16;;;;;;;;;;;;;;;;;;4994729;28;20379;-62
2023/07/15 16:14:42;;;;;;;;;;;;;;;;;;4995073;28;20414;-62
2023/07/15 16:17:08;;;;;;;;;;;;;;;;;;4994703;28;20051;-62
2023/07/15 16:19:34;;;;;;;;;;;;;;;;;;4994839;28;19925;-62
2023/07/15 16:22:03;;;;;;;;;;;;;;;;;;4994596;28;20378;-62
2023/07/15 16:24:29;;;;;;;;;;;;;;;;;;4994679;28;19956;-62
2023/07/15 16:26:54;;;;;;;;;;;;;;;;;;4994611;28;20244;-62
2023/07/15 16:29:20;;;;;;;;;;;;;;;;;;4994479;28;19926;-62
2023/07/15 16:31:46;;;;;;;;;;;;;;;;;;4993438;28;20119;-62
2023/07/15 16:34:13;;;;;;;;;;;;;;;;;;4994412;28;20315;-62
2023/07/15 16:36:39;;;;;;;;;;;;;;;;;;4994428;28;20020;-62